Time;durP1;ratioP1;P1;durP2;ratioP2;P2;SDS_P1;SDS_P2;PMS_P1;PMS_P2;Temp;Humidity;BMP_temperature;BMP_pressure;BME280_temperature;BME280_humidity;BME280_pressure;Samples;Min_cycle;Max_cycle;Signal;HPM_P1;HPM_P2
2022/02/24 00:00:37;;;;;;;5.20;3.93;;;11.90;78.80;;;;;;5053171;28;20369;-68
2022/02/24 00:03:03;;;;;;;4.10;3.47;;;12.00;78.90;;;;;;5054214;28;20575;-68
2022/02/24 00:05:29;;;;;;;4.30;3.40;;;12.00;78.90;;;;;;5053423;28;20417;-69
2022/02/24 00:07:55;;;;;;;3.30;3.10;;;12.00;78.80;;;;;;5052157;28;20508;-68
2022/02/24 00:10:21;;;;;;;3.90;3.60;;;12.00;79.10;;;;;;5052133;28;20465;-82
2022/02/24 00:12:47;;;;;;;4.30;3.63;;;12.00;79.10;;;;;;5053159;28;20288;-68
2022/02/24 00:15:13;;;;;;;3.80;3.50;;;12.00;79.30;;;;;;5053947;28;20414;-68
2022/02/24 00:17:40;;;;;;;5.90;3.70;;;12.00;79.50;;;;;;5052778;28;20439;-69
2022/02/24 00:20:07;;;;;;;4.20;3.80;;;11.90;79.60;;;;;;5053283;28;20452;-69
2022/02/24 00:22:33;;;;;;;5.00;4.60;;;11.90;80.00;;;;;;5052197;28;20899;-69
2022/02/24 00:25:00;;;;;;;4.00;3.70;;;12.00;80.10;;;;;;5052686;28;20424;-68
2022/02/24 00:27:26;;;;;;;4.60;3.77;;;12.00;80.00;;;;;;5052388;28;20427;-69
2022/02/24 00:29:52;;;;;;;6.10;4.10;;;11.90;79.80;;;;;;5052828;28;20470;-68
2022/02/24 00:32:18;;;;;;;5.80;4.27;;;12.00;80.10;;;;;;5053341;28;20413;-68
2022/02/24 00:34:44;;;;;;;7.40;4.80;;;11.90;80.40;;;;;;5052893;28;20601;-68
2022/02/24 00:37:09;;;;;;;4.50;4.20;;;11.80;80.90;;;;;;5051434;28;20539;-68
2022/02/24 00:39:35;;;;;;;4.10;3.60;;;11.90;81.00;;;;;;5051300;28;20176;-73
2022/02/24 00:42:01;;;;;;;4.17;3.77;;;11.90;81.10;;;;;;5053019;28;20611;-68
2022/02/24 00:44:26;;;;;;;5.20;4.17;;;11.80;81.50;;;;;;5051533;28;20177;-70
2022/02/24 00:46:52;;;;;;;4.70;3.60;;;11.80;81.70;;;;;;5051945;28;20228;-68
2022/02/24 00:49:20;;;;;;;4.00;3.60;;;11.80;82.30;;;;;;5052883;28;20230;-68
2022/02/24 00:51:46;;;;;;;4.60;3.83;;;11.80;82.40;;;;;;5050967;28;20176;-68
2022/02/24 00:54:14;;;;;;;5.60;4.30;;;11.80;82.60;;;;;;5051851;28;20470;-68
2022/02/24 00:56:40;;;;;;;6.47;4.20;;;11.70;82.80;;;;;;5052123;28;20473;-68
2022/02/24 00:59:05;;;;;;;4.90;4.03;;;11.70;83.60;;;;;;5051794;28;20923;-68
2022/02/24 01:01:31;;;;;;;11.43;3.90;;;11.70;84.00;;;;;;5051533;28;20424;-68
2022/02/24 01:03:57;;;;;;;7.90;4.57;;;11.70;84.10;;;;;;5054225;28;20212;-68
2022/02/24 01:06:23;;;;;;;4.90;3.90;;;11.60;84.50;;;;;;5053852;28;20796;-80
2022/02/24 01:08:49;;;;;;;4.43;4.13;;;11.50;85.10;;;;;;5053236;28;20463;-68
2022/02/24 01:11:15;;;;;;;4.60;3.70;;;11.50;85.50;;;;;;5051198;28;20276;-68
2022/02/24 01:13:41;;;;;;;8.83;4.27;;;11.60;85.90;;;;;;5051468;28;20209;-70
2022/02/24 01:16:07;;;;;;;5.23;4.10;;;11.40;86.10;;;;;;5051125;28;20455;-68
2022/02/24 01:18:33;;;;;;;5.27;4.30;;;11.40;86.40;;;;;;5050404;28;20443;-69
2022/02/24 01:20:58;;;;;;;6.20;3.93;;;11.30;86.70;;;;;;5051174;28;20228;-69
2022/02/24 01:23:24;;;;;;;7.77;3.80;;;11.30;87.20;;;;;;5050837;28;20176;-80
2022/02/24 01:25:50;;;;;;;5.07;4.57;;;11.20;87.60;;;;;;5050890;28;20191;-73
2022/02/24 01:28:16;;;;;;;5.03;4.53;;;11.30;87.20;;;;;;5051252;28;20193;-68
2022/02/24 01:30:42;;;;;;;5.10;4.60;;;11.30;87.30;;;;;;5049809;28;20427;-68
2022/02/24 01:33:08;;;;;;;4.10;3.80;;;11.20;86.90;;;;;;5050877;28;20517;-69
2022/02/24 01:35:34;;;;;;;4.97;4.50;;;11.30;87.00;;;;;;5048948;28;20416;-69
2022/02/24 01:38:00;;;;;;;5.83;3.27;;;11.20;86.40;;;;;;5051000;28;20442;-70
2022/02/24 01:40:25;;;;;;;6.60;3.73;;;11.20;86.90;;;;;;5056467;28;20503;-80
2022/02/24 01:42:51;;;;;;;5.33;3.40;;;11.10;86.60;;;;;;5050484;28;20602;-69
2022/02/24 01:45:17;;;;;;;4.77;3.37;;;11.10;86.70;;;;;;5050452;28;20211;-68
2022/02/24 01:47:43;;;;;;;5.70;3.70;;;11.10;86.90;;;;;;5050036;28;20238;-69
2022/02/24 01:50:11;;;;;;;6.27;3.93;;;11.00;87.20;;;;;;5050908;28;20505;-68
2022/02/24 01:52:38;;;;;;;4.00;3.60;;;11.10;87.50;;;;;;5051376;28;20407;-69
2022/02/24 01:55:05;;;;;;;4.70;3.50;;;11.10;87.00;;;;;;5051828;28;20404;-68
2022/02/24 01:57:31;;;;;;;3.87;3.57;;;11.20;87.40;;;;;;5051228;28;20570;-68
2022/02/24 01:59:57;;;;;;;4.20;3.07;;;11.20;87.60;;;;;;5051702;28;20850;-69
2022/02/24 02:02:23;;;;;;;4.73;3.40;;;11.20;87.10;;;;;;5052030;28;20187;-73
2022/02/24 02:04:49;;;;;;;5.83;3.73;;;11.30;87.30;;;;;;5049751;28;20422;-68
2022/02/24 02:07:15;;;;;;;3.93;3.40;;;11.20;87.40;;;;;;5050326;28;21029;-69
2022/02/24 02:09:41;;;;;;;6.33;4.00;;;11.20;87.50;;;;;;5049554;28;20458;-68
2022/02/24 02:12:07;;;;;;;4.17;3.70;;;11.30;87.90;;;;;;5050373;28;20789;-69
2022/02/24 02:14:35;;;;;;;9.17;4.40;;;11.30;86.70;;;;;;5050026;28;20410;-69
2022/02/24 02:17:02;;;;;;;6.90;3.77;;;11.30;86.70;;;;;;5049885;28;20779;-69
2022/02/24 02:19:28;;;;;;;8.30;3.97;;;11.30;86.70;;;;;;5051070;28;20428;-80
2022/02/24 02:21:54;;;;;;;4.60;3.57;;;11.40;86.50;;;;;;5051446;28;20546;-68
2022/02/24 02:24:20;;;;;;;5.20;3.90;;;11.30;86.60;;;;;;5050409;28;20849;-68
2022/02/24 02:26:49;;;;;;;5.03;3.93;;;11.40;87.40;;;;;;5051016;28;20487;-69
2022/02/24 02:29:15;;;;;;;5.43;3.47;;;11.30;87.10;;;;;;5051962;28;20806;-69
2022/02/24 02:31:42;;;;;;;4.40;3.40;;;11.30;86.90;;;;;;5033131;28;20423;-68
2022/02/24 02:34:15;;;;;;;4.00;3.60;;;11.30;87.20;;;;;;5051850;28;20425;-68
2022/02/24 02:36:42;;;;;;;4.63;3.43;;;11.30;87.30;;;;;;5051023;28;20392;-68
2022/02/24 02:39:10;;;;;;;3.50;3.20;;;11.30;87.50;;;;;;5051669;28;20408;-68
2022/02/24 02:41:37;;;;;;;4.93;3.83;;;11.30;87.70;;;;;;5050990;28;20421;-69
2022/02/24 02:44:03;;;;;;;3.23;3.03;;;11.30;87.80;;;;;;5051525;28;20507;-68
2022/02/24 02:46:29;;;;;;;5.30;3.53;;;11.20;88.00;;;;;;5051115;28;20405;-79
2022/02/24 02:48:55;;;;;;;6.70;3.73;;;11.20;88.50;;;;;;5051576;28;20844;-69
2022/02/24 02:51:21;;;;;;;3.70;3.37;;;11.30;88.30;;;;;;5050429;28;20407;-68
2022/02/24 02:53:47;;;;;;;6.87;4.03;;;11.30;88.30;;;;;;5050810;28;20246;-69
2022/02/24 02:56:13;;;;;;;4.83;4.27;;;11.40;88.10;;;;;;5051397;28;20628;-68
2022/02/24 02:58:39;;;;;;;4.93;3.33;;;11.40;88.00;;;;;;5050656;28;20483;-69
2022/02/24 03:01:05;;;;;;;3.77;3.53;;;11.40;88.40;;;;;;5053648;28;20435;-69
2022/02/24 03:03:31;;;;;;;3.77;3.37;;;11.50;88.30;;;;;;5054044;28;20854;-80
2022/02/24 03:05:57;;;;;;;8.03;3.40;;;11.50;88.10;;;;;;5070569;28;20273;-68
2022/02/24 03:08:23;;;;;;;4.47;3.40;;;11.40;87.90;;;;;;5054723;28;20455;-69
2022/02/24 03:10:50;;;;;;;4.27;3.33;;;11.40;88.40;;;;;;5054011;28;20978;-68
2022/02/24 03:13:17;;;;;;;3.23;2.90;;;11.40;88.50;;;;;;5055063;28;20499;-68
2022/02/24 03:15:43;;;;;;;5.30;3.80;;;11.40;88.70;;;;;;5054516;28;20430;-68
2022/02/24 03:18:09;;;;;;;5.77;3.40;;;11.40;89.20;;;;;;5052910;28;20526;-68
2022/02/24 03:20:35;;;;;;;6.33;4.10;;;11.30;89.30;;;;;;5053899;28;20226;-69
2022/02/24 03:23:03;;;;;;;6.43;4.07;;;11.30;89.60;;;;;;5054830;28;20407;-68
2022/02/24 03:25:29;;;;;;;5.93;3.90;;;11.30;89.60;;;;;;5054202;28;20904;-80
2022/02/24 03:27:55;;;;;;;6.83;4.27;;;11.30;89.50;;;;;;5054078;28;20464;-68
2022/02/24 03:30:22;;;;;;;4.63;3.10;;;11.30;89.60;;;;;;5053271;28;20562;-68
2022/02/24 03:32:48;;;;;;;6.13;3.47;;;11.30;89.50;;;;;;5053863;28;20427;-68
2022/02/24 03:35:14;;;;;;;7.00;3.30;;;11.30;89.50;;;;;;5054607;28;20404;-68
2022/02/24 03:37:40;;;;;;;4.27;3.50;;;11.30;89.50;;;;;;5052977;28;20448;-69
2022/02/24 03:40:07;;;;;;;5.77;3.87;;;11.30;89.20;;;;;;5054703;28;20867;-68
2022/02/24 03:42:34;;;;;;;5.50;3.90;;;11.30;89.30;;;;;;5053664;28;20185;-76
2022/02/24 03:45:00;;;;;;;3.33;3.03;;;11.40;89.60;;;;;;5054733;28;20412;-68
2022/02/24 03:47:26;;;;;;;6.10;3.60;;;11.40;89.40;;;;;;5036568;28;20416;-68
2022/02/24 03:49:52;;;;;;;3.80;3.50;;;11.30;89.70;;;;;;5053514;28;20488;-68
2022/02/24 03:52:18;;;;;;;5.53;4.03;;;11.40;89.80;;;;;;5053935;28;20182;-68
2022/02/24 03:54:47;;;;;;;4.93;3.33;;;11.30;89.80;;;;;;5053206;28;20445;-68
2022/02/24 03:57:14;;;;;;;5.33;3.83;;;11.40;89.80;;;;;;5053760;28;20417;-68
2022/02/24 03:59:41;;;;;;;6.53;3.80;;;11.40;90.20;;;;;;5053303;28;20416;-69
2022/02/24 04:02:08;;;;;;;5.50;3.80;;;11.40;89.60;;;;;;5054492;28;20418;-68
2022/02/24 04:04:35;;;;;;;3.90;3.13;;;11.40;89.70;;;;;;5053589;28;20430;-83
2022/02/24 04:07:01;;;;;;;5.37;3.70;;;11.40;89.80;;;;;;5053766;28;20423;-69
2022/02/24 04:09:27;;;;;;;3.80;3.50;;;11.40;89.60;;;;;;5053352;28;20513;-68
2022/02/24 04:11:53;;;;;;;3.60;3.30;;;11.40;89.80;;;;;;5051971;28;20501;-68
2022/02/24 04:14:19;;;;;;;4.00;3.60;;;11.40;89.80;;;;;;5052465;28;20900;-68
2022/02/24 04:16:45;;;;;;;7.43;3.70;;;11.40;89.60;;;;;;5052937;28;20204;-68
2022/02/24 04:19:10;;;;;;;6.03;3.70;;;11.40;89.90;;;;;;5035997;28;20908;-68
2022/02/24 04:21:36;;;;;;;5.03;3.60;;;11.50;90.00;;;;;;5053251;28;20226;-70
2022/02/24 04:24:03;;;;;;;5.10;4.07;;;11.40;89.60;;;;;;5054000;28;20175;-68
2022/02/24 04:26:29;;;;;;;4.30;3.90;;;11.40;89.60;;;;;;5053848;28;20264;-68
2022/02/24 04:28:54;;;;;;;3.97;3.57;;;11.30;89.80;;;;;;5052574;28;20612;-68
2022/02/24 04:31:20;;;;;;;4.10;3.70;;;11.20;90.10;;;;;;5053264;28;20172;-68
2022/02/24 04:33:46;;;;;;;4.63;4.20;;;11.20;90.20;;;;;;5051733;28;20565;-69
2022/02/24 04:36:12;;;;;;;5.00;4.50;;;11.20;90.30;;;;;;5053564;28;20260;-68
2022/02/24 04:38:37;;;;;;;4.47;4.07;;;11.10;90.60;;;;;;5052307;28;20185;-70
2022/02/24 04:41:03;;;;;;;6.37;4.57;;;11.00;90.80;;;;;;5052921;28;20179;-69
2022/02/24 04:43:29;;;;;;;6.07;5.60;;;11.00;90.80;;;;;;5053572;28;20435;-67
2022/02/24 04:45:55;;;;;;;3.50;3.07;;;11.00;90.90;;;;;;5052476;28;20194;-69
2022/02/24 04:48:21;;;;;;;6.80;6.10;;;11.10;90.80;;;;;;5052773;28;20206;-68
2022/02/24 04:50:49;;;;;;;7.83;6.17;;;11.10;90.70;;;;;;5051180;28;20264;-68
2022/02/24 04:53:16;;;;;;;5.10;3.70;;;11.10;90.80;;;;;;5053430;28;20183;-69
2022/02/24 04:55:42;;;;;;;6.80;5.97;;;11.20;90.70;;;;;;5052283;28;20791;-69
2022/02/24 04:58:08;;;;;;;6.10;5.33;;;11.40;90.60;;;;;;5053302;28;20477;-68
2022/02/24 05:00:34;;;;;;;5.40;5.10;;;11.40;90.30;;;;;;5053407;28;20514;-86
2022/02/24 05:03:00;;;;;;;9.13;4.40;;;11.40;90.30;;;;;;5052800;28;20452;-69
2022/02/24 05:05:26;;;;;;;9.57;6.60;;;11.40;90.20;;;;;;5052868;28;20432;-68
2022/02/24 05:07:52;;;;;;;5.80;5.20;;;11.40;90.20;;;;;;5056592;28;20318;-69
2022/02/24 05:10:17;;;;;;;6.07;5.57;;;11.40;90.10;;;;;;5070541;28;20202;-69
2022/02/24 05:12:44;;;;;;;6.03;4.93;;;11.40;90.10;;;;;;5068519;28;20191;-69
2022/02/24 05:15:10;;;;;;;4.63;4.03;;;11.40;90.20;;;;;;5052033;28;20267;-68
2022/02/24 05:17:39;;;;;;;6.10;5.13;;;11.40;90.10;;;;;;5034008;28;20927;-82
2022/02/24 05:20:09;;;;;;;4.03;3.70;;;11.40;90.00;;;;;;5051257;28;20513;-69
2022/02/24 05:22:39;;;;;;;7.10;5.30;;;11.40;90.00;;;;;;5052538;28;20389;-80
2022/02/24 05:25:07;;;;;;;4.97;4.20;;;11.40;90.10;;;;;;5052694;28;20400;-69
2022/02/24 05:27:32;;;;;;;5.40;3.63;;;11.40;90.30;;;;;;5051380;28;20424;-69
2022/02/24 05:29:59;;;;;;;3.60;3.40;;;11.40;90.10;;;;;;5051093;28;20564;-69
2022/02/24 05:32:25;;;;;;;7.87;6.90;;;11.30;90.20;;;;;;5051938;28;20189;-69
2022/02/24 05:34:50;;;;;;;6.97;5.70;;;11.40;90.40;;;;;;5050439;28;20451;-69
2022/02/24 05:37:17;;;;;;;5.03;4.63;;;11.40;90.40;;;;;;5050943;28;20213;-69
2022/02/24 05:39:43;;;;;;;5.00;4.60;;;11.20;90.20;;;;;;5067018;28;20275;-69
2022/02/24 05:42:09;;;;;;;3.87;3.40;;;11.20;90.90;;;;;;5050803;28;20444;-69
2022/02/24 05:44:34;;;;;;;7.43;4.30;;;11.20;90.90;;;;;;5050773;28;20411;-68
2022/02/24 05:47:00;;;;;;;4.73;4.23;;;11.20;90.90;;;;;;5032215;28;20229;-69
2022/02/24 05:49:26;;;;;;;8.07;4.37;;;11.30;91.00;;;;;;5051646;28;20603;-69
2022/02/24 05:51:52;;;;;;;7.07;5.70;;;11.20;90.90;;;;;;5050441;28;20438;-69
2022/02/24 05:54:18;;;;;;;5.17;4.80;;;11.10;91.00;;;;;;5052809;28;20181;-70
2022/02/24 05:56:43;;;;;;;7.03;4.20;;;11.10;91.20;;;;;;5050786;28;20857;-69
2022/02/24 05:59:09;;;;;;;6.20;3.80;;;11.20;91.30;;;;;;5049939;28;20571;-72
2022/02/24 06:01:35;;;;;;;6.67;4.80;;;11.20;91.30;;;;;;5054622;28;20514;-69
2022/02/24 06:04:01;;;;;;;7.10;5.33;;;11.00;91.60;;;;;;5050094;28;20535;-69
2022/02/24 06:06:26;;;;;;;5.33;4.87;;;11.00;91.60;;;;;;5051518;28;20260;-69
2022/02/24 06:08:52;;;;;;;6.30;5.83;;;10.90;91.80;;;;;;5048700;28;20213;-69
2022/02/24 06:11:18;;;;;;;4.80;4.50;;;10.90;92.10;;;;;;5048649;28;20226;-68
2022/02/24 06:13:44;;;;;;;7.83;4.43;;;10.90;92.10;;;;;;5048683;28;20648;-68
2022/02/24 06:16:09;;;;;;;6.30;4.30;;;11.00;92.20;;;;;;5063977;28;20264;-66
2022/02/24 06:18:35;;;;;;;6.77;4.43;;;11.00;92.20;;;;;;5049730;28;20202;-68
2022/02/24 06:21:01;;;;;;;8.27;6.33;;;10.80;92.40;;;;;;5048733;28;20693;-68
2022/02/24 06:23:27;;;;;;;4.80;4.40;;;10.80;92.70;;;;;;5049622;28;20181;-68
2022/02/24 06:25:53;;;;;;;6.20;4.33;;;10.90;92.50;;;;;;5051484;28;20192;-68
2022/02/24 06:28:19;;;;;;;4.17;3.70;;;11.00;92.40;;;;;;5050302;28;20195;-68
2022/02/24 06:30:45;;;;;;;4.83;3.43;;;11.00;92.10;;;;;;5050883;28;20510;-69
2022/02/24 06:33:10;;;;;;;6.77;3.50;;;11.00;92.10;;;;;;5052660;28;20888;-68
2022/02/24 06:35:36;;;;;;;4.73;3.60;;;10.90;92.20;;;;;;5051792;28;20807;-68
2022/02/24 06:38:02;;;;;;;5.73;4.97;;;10.90;92.30;;;;;;5059369;28;20196;-67
2022/02/24 06:40:30;;;;;;;4.20;3.10;;;11.00;92.30;;;;;;5058959;28;20268;-68
2022/02/24 06:42:59;;;;;;;7.33;3.17;;;11.00;92.30;;;;;;5043874;28;21086;-67
2022/02/24 06:45:24;;;;;;;5.50;3.60;;;11.00;92.20;;;;;;5055702;28;20438;-67
2022/02/24 06:47:50;;;;;;;3.07;2.80;;;11.00;92.20;;;;;;5054301;28;20469;-67
2022/02/24 06:50:16;;;;;;;5.50;3.63;;;11.00;92.40;;;;;;5054770;28;20178;-67
2022/02/24 06:52:42;;;;;;;6.10;4.27;;;11.00;92.40;;;;;;5052884;28;20252;-67
2022/02/24 06:55:09;;;;;;;4.90;3.57;;;11.10;92.40;;;;;;5053235;28;20644;-69
2022/02/24 06:57:41;;;;;;;4.13;3.63;;;11.10;92.30;;;;;;5053917;28;20216;-66
2022/02/24 07:00:07;;;;;;;4.53;3.63;;;11.20;92.20;;;;;;5050664;28;20794;-68
2022/02/24 07:02:33;;;;;;;6.33;3.47;;;11.10;92.10;;;;;;5052658;28;20522;-68
2022/02/24 07:04:59;;;;;;;4.07;3.43;;;11.10;92.10;;;;;;5053340;28;20502;-67
2022/02/24 07:07:25;;;;;;;4.03;3.73;;;11.00;92.10;;;;;;5053909;28;20965;-71
2022/02/24 07:09:50;;;;;;;4.93;4.53;;;11.00;92.40;;;;;;5053299;28;20210;-67
2022/02/24 07:12:16;;;;;;;4.63;3.90;;;11.00;92.30;;;;;;5054439;28;20648;-70
2022/02/24 07:14:42;;;;;;;5.33;4.80;;;11.00;95.70;;;;;;5054563;28;20175;-70
2022/02/24 07:17:07;;;;;;;3.93;3.37;;;11.30;97.30;;;;;;5055536;28;20655;-70
2022/02/24 07:19:33;;;;;;;3.57;3.30;;;11.70;96.80;;;;;;5063821;28;20512;-70
2022/02/24 07:21:59;;;;;;;6.00;3.13;;;12.00;95.60;;;;;;5054462;28;20217;-70
2022/02/24 07:24:25;;;;;;;5.10;4.47;;;12.20;94.30;;;;;;5055607;28;20189;-71
2022/02/24 07:26:50;;;;;;;5.97;3.70;;;12.40;93.70;;;;;;5052584;28;20223;-71
2022/02/24 07:29:17;;;;;;;4.40;4.00;;;12.60;92.90;;;;;;5054414;28;20233;-71
2022/02/24 07:31:42;;;;;;;4.40;3.37;;;12.80;93.30;;;;;;5053504;28;20528;-71
2022/02/24 07:34:08;;;;;;;4.00;3.53;;;13.10;93.70;;;;;;5054580;28;20497;-71
2022/02/24 07:36:34;;;;;;;3.10;2.77;;;12.90;90.80;;;;;;5054374;28;20311;-70
2022/02/24 07:39:00;;;;;;;2.93;2.73;;;12.90;91.10;;;;;;5053383;28;20520;-71
2022/02/24 07:41:26;;;;;;;4.33;3.10;;;13.00;91.30;;;;;;5053458;28;20583;-69
2022/02/24 07:43:51;;;;;;;5.53;3.70;;;12.60;88.40;;;;;;5052234;28;20196;-68
2022/02/24 07:46:17;;;;;;;3.37;3.07;;;12.50;88.90;;;;;;5051613;28;20679;-70
2022/02/24 07:48:43;;;;;;;4.20;3.97;;;12.40;88.90;;;;;;5047641;28;20573;-68
2022/02/24 07:51:09;;;;;;;3.53;3.30;;;12.30;89.20;;;;;;5053965;28;20187;-68
2022/02/24 07:53:34;;;;;;;4.20;3.20;;;12.20;89.60;;;;;;5053461;28;20188;-69
2022/02/24 07:56:00;;;;;;;3.93;3.40;;;12.20;90.10;;;;;;5052513;28;20185;-71
2022/02/24 07:58:26;;;;;;;5.30;4.90;;;12.10;90.10;;;;;;5053641;28;20637;-68
2022/02/24 08:00:51;;;;;;;5.80;2.90;;;11.90;90.70;;;;;;5052299;28;20231;-68
2022/02/24 08:03:17;;;;;;;3.60;3.40;;;11.70;91.20;;;;;;5053710;28;20182;-68
2022/02/24 08:05:43;;;;;;;4.70;3.10;;;11.70;91.40;;;;;;5048928;28;20179;-73
2022/02/24 08:08:09;;;;;;;3.00;2.70;;;11.70;91.30;;;;;;5052947;28;20205;-68
2022/02/24 08:10:35;;;;;;;5.50;3.27;;;11.80;91.40;;;;;;5061742;28;20436;-68
2022/02/24 08:13:01;;;;;;;4.97;2.50;;;11.80;91.40;;;;;;5052463;28;20200;-68
2022/02/24 08:15:27;;;;;;;5.10;3.10;;;11.70;91.30;;;;;;5053289;28;20205;-68
2022/02/24 08:17:54;;;;;;;4.40;2.37;;;11.60;91.40;;;;;;5052084;28;20434;-69
2022/02/24 08:20:19;;;;;;;4.20;2.77;;;11.60;92.00;;;;;;5054229;28;20499;-69
2022/02/24 08:22:48;;;;;;;3.50;2.30;;;11.40;92.20;;;;;;5052445;28;20454;-68
2022/02/24 08:25:17;;;;;;;3.83;2.70;;;11.50;92.10;;;;;;5052195;28;20453;-68
2022/02/24 08:27:44;;;;;;;5.07;3.30;;;11.40;92.00;;;;;;5052454;28;20434;-68
2022/02/24 08:30:12;;;;;;;3.80;3.30;;;11.40;92.50;;;;;;5053073;28;20527;-68
2022/02/24 08:32:39;;;;;;;4.20;3.20;;;11.40;92.40;;;;;;5052438;28;20910;-68
2022/02/24 08:35:07;;;;;;;3.50;3.23;;;11.30;92.20;;;;;;5052684;28;20436;-68
2022/02/24 08:37:33;;;;;;;5.97;3.33;;;11.40;92.30;;;;;;5051394;28;20954;-68
2022/02/24 08:39:58;;;;;;;4.50;2.90;;;11.30;92.30;;;;;;5051623;28;20462;-68
2022/02/24 08:42:27;;;;;;;3.90;3.60;;;11.40;92.00;;;;;;5052773;28;20423;-68
2022/02/24 08:44:53;;;;;;;3.90;2.90;;;11.30;91.60;;;;;;5052950;28;20184;-68
2022/02/24 08:47:19;;;;;;;2.93;2.70;;;11.40;91.60;;;;;;5053459;28;20465;-67
2022/02/24 08:49:46;;;;;;;3.90;3.17;;;11.40;91.80;;;;;;5052716;28;20503;-68
2022/02/24 08:52:12;;;;;;;4.90;3.07;;;11.30;91.80;;;;;;5053437;28;20412;-68
2022/02/24 08:54:39;;;;;;;2.70;2.50;;;11.30;91.90;;;;;;5050928;28;20426;-68
2022/02/24 08:57:05;;;;;;;3.00;2.67;;;11.30;91.90;;;;;;5052603;28;20433;-68
2022/02/24 08:59:32;;;;;;;3.30;3.10;;;11.30;92.20;;;;;;5053234;28;20432;-67
2022/02/24 09:01:58;;;;;;;4.97;3.60;;;11.30;92.40;;;;;;5052540;28;20426;-68
2022/02/24 09:04:24;;;;;;;4.00;2.90;;;11.30;92.60;;;;;;5053047;28;20895;-68
2022/02/24 09:06:49;;;;;;;7.43;3.47;;;11.30;92.80;;;;;;5052521;28;20179;-68
2022/02/24 09:09:16;;;;;;;3.10;2.70;;;11.40;92.70;;;;;;5053038;28;20459;-68
2022/02/24 09:11:43;;;;;;;6.20;3.67;;;11.30;92.30;;;;;;5047762;28;20427;-72
2022/02/24 09:14:09;;;;;;;3.70;2.70;;;11.30;92.40;;;;;;5051717;28;20422;-68
2022/02/24 09:16:35;;;;;;;3.23;2.20;;;11.20;92.50;;;;;;5051085;28;20770;-68
2022/02/24 09:19:01;;;;;;;3.20;2.73;;;11.20;92.30;;;;;;5052108;28;20427;-68
2022/02/24 09:21:26;;;;;;;3.20;2.90;;;11.30;92.60;;;;;;5052877;28;20453;-68
2022/02/24 09:23:52;;;;;;;4.27;2.50;;;11.30;92.30;;;;;;5051538;28;20222;-68
2022/02/24 09:26:18;;;;;;;3.27;2.80;;;11.30;92.20;;;;;;5052030;28;20427;-68
2022/02/24 09:28:45;;;;;;;3.43;3.13;;;11.30;92.00;;;;;;5051361;28;20267;-75
2022/02/24 09:31:11;;;;;;;5.23;3.13;;;11.30;92.20;;;;;;5051055;28;20432;-68
2022/02/24 09:33:36;;;;;;;2.73;2.10;;;11.30;92.20;;;;;;5049139;28;20546;-68
2022/02/24 09:36:03;;;;;;;4.00;3.60;;;11.30;92.70;;;;;;5050655;28;20575;-69
2022/02/24 09:38:29;;;;;;;2.50;2.30;;;11.30;93.00;;;;;;5051063;28;20578;-69
2022/02/24 09:40:56;;;;;;;3.87;3.00;;;11.30;93.70;;;;;;5049269;28;20498;-71
2022/02/24 09:43:27;;;;;;;3.97;3.60;;;11.20;94.30;;;;;;5049900;28;20454;-68
2022/02/24 09:45:58;;;;;;;4.30;2.90;;;11.20;94.80;;;;;;5051805;28;20416;-66
2022/02/24 09:48:28;;;;;;;4.83;2.87;;;11.20;95.50;;;;;;5052432;28;20545;-66
2022/02/24 09:50:55;;;;;;;4.50;3.60;;;11.10;96.10;;;;;;5051855;28;20892;-67
2022/02/24 09:53:23;;;;;;;4.23;3.80;;;11.20;96.50;;;;;;5052449;28;20440;-67
2022/02/24 09:55:49;;;;;;;11.40;4.50;;;11.10;96.50;;;;;;5051825;28;20412;-67
2022/02/24 09:58:16;;;;;;;5.33;4.10;;;11.10;96.70;;;;;;5052114;28;20954;-66
2022/02/24 10:00:42;;;;;;;6.17;3.60;;;11.10;96.90;;;;;;5052013;28;20894;-66
2022/02/24 10:03:26;;;;;;;4.60;4.20;;;11.00;97.20;;;;;;5051645;28;20433;-68
2022/02/24 10:05:52;;;;;;;7.10;4.10;;;11.00;97.60;;;;;;5051498;28;20931;-67
2022/02/24 10:08:24;;;;;;;9.13;4.10;;;10.90;97.80;;;;;;5052052;28;20465;-68
2022/02/24 10:10:50;;;;;;;4.77;4.17;;;11.00;98.10;;;;;;5053582;28;20172;-73
2022/02/24 10:13:17;;;;;;;5.73;4.10;;;11.00;98.50;;;;;;5054903;28;20425;-67
2022/02/24 10:15:52;;;;;;;5.00;4.00;;;11.00;98.40;;;;;;5056242;28;20198;-68
2022/02/24 10:18:20;;;;;;;5.97;4.20;;;11.00;98.60;;;;;;5056197;28;20915;-67
2022/02/24 10:20:49;;;;;;;5.93;4.17;;;11.00;98.60;;;;;;5055435;28;20454;-73
2022/02/24 10:23:17;;;;;;;6.43;3.80;;;11.10;98.80;;;;;;5055760;28;20457;-67
2022/02/24 10:25:50;;;;;;;5.33;4.17;;;11.10;98.50;;;;;;5056215;28;20403;-67
2022/02/24 10:28:36;;;;;;;9.93;4.30;;;11.00;98.30;;;;;;5056276;28;20446;-67
2022/02/24 10:31:08;;;;;;;4.60;3.90;;;11.00;98.80;;;;;;5055909;28;20418;-67
2022/02/24 10:33:35;;;;;;;4.47;4.10;;;11.00;99.10;;;;;;5056207;28;20420;-67
2022/02/24 10:36:18;;;;;;;4.20;3.80;;;11.10;99.10;;;;;;5055510;28;20425;-67
2022/02/24 10:39:07;;;;;;;6.53;6.03;;;11.20;98.80;;;;;;5056200;28;20495;-67
2022/02/24 10:41:39;;;;;;;4.53;4.17;;;11.10;98.90;;;;;;5054268;28;20427;-67
2022/02/24 10:44:33;;;;;;;5.93;4.37;;;11.00;99.10;;;;;;5055362;28;20605;-67
2022/02/24 10:47:04;;;;;;;3.83;3.53;;;11.10;99.60;;;;;;5054387;28;20454;-67
2022/02/24 10:49:36;;;;;;;5.77;5.27;;;11.00;99.90;;;;;;5054349;28;20498;-68
2022/02/24 10:52:18;;;;;;;5.37;3.10;;;11.10;99.90;;;;;;5054041;28;20782;-67
2022/02/24 10:54:59;;;;;;;5.87;4.70;;;11.20;99.90;;;;;;5055652;28;20420;-67
2022/02/24 10:57:27;;;;;;;4.23;3.17;;;11.40;99.90;;;;;;5055973;28;20783;-67
2022/02/24 10:59:57;;;;;;;3.97;3.50;;;11.30;99.70;;;;;;5054904;28;20489;-67
2022/02/24 11:02:27;;;;;;;4.87;4.40;;;11.30;99.60;;;;;;5055548;28;20424;-67
2022/02/24 11:04:54;;;;;;;6.50;4.80;;;11.30;99.40;;;;;;5053864;28;20463;-68
2022/02/24 11:07:21;;;;;;;5.30;4.40;;;11.30;99.90;;;;;;5055678;28;20763;-68
2022/02/24 11:09:48;;;;;;;4.27;3.70;;;11.40;99.90;;;;;;5055023;28;20868;-74
2022/02/24 11:12:15;;;;;;;5.27;3.30;;;11.40;99.90;;;;;;5053735;28;20418;-68
2022/02/24 11:14:45;;;;;;;5.27;3.63;;;11.40;99.90;;;;;;5055359;28;20422;-68
2022/02/24 11:17:11;;;;;;;3.60;3.30;;;11.50;99.90;;;;;;5054627;28;20414;-68
2022/02/24 11:19:39;;;;;;;9.70;4.03;;;11.50;99.90;;;;;;5054945;28;20425;-67
2022/02/24 11:22:07;;;;;;;7.90;4.17;;;11.50;99.90;;;;;;5054324;28;20493;-67
2022/02/24 11:24:34;;;;;;;6.93;4.00;;;11.50;99.90;;;;;;5055084;28;20434;-67
2022/02/24 11:27:21;;;;;;;5.83;3.63;;;11.50;99.90;;;;;;5054458;28;20457;-68
2022/02/24 11:29:59;;;;;;;14.50;4.30;;;11.40;99.90;;;;;;5055028;28;20478;-68
2022/02/24 11:32:27;;;;;;;4.60;4.20;;;11.40;99.90;;;;;;5055101;28;20420;-67
2022/02/24 11:35:06;;;;;;;5.10;4.60;;;11.30;99.90;;;;;;5054405;28;20419;-68
2022/02/24 11:37:43;;;;;;;5.13;4.63;;;11.30;99.90;;;;;;5054825;28;20415;-68
2022/02/24 11:40:18;;;;;;;5.17;4.70;;;11.40;99.90;;;;;;5052798;28;20822;-68
2022/02/24 11:42:46;;;;;;;9.70;5.33;;;11.40;99.90;;;;;;5053413;28;20411;-67
2022/02/24 11:45:23;;;;;;;6.47;5.80;;;11.60;99.90;;;;;;5053867;28;20410;-68
2022/02/24 11:48:04;;;;;;;5.57;5.00;;;11.60;99.90;;;;;;5053768;28;20411;-73
2022/02/24 11:50:37;;;;;;;6.60;5.83;;;11.50;99.90;;;;;;5054076;28;20425;-68
2022/02/24 11:53:05;;;;;;;7.33;5.70;;;11.50;99.90;;;;;;5053619;28;20908;-68
2022/02/24 11:55:55;;;;;;;5.90;5.40;;;11.40;99.90;;;;;;5054416;28;20550;-68
2022/02/24 11:58:35;;;;;;;6.20;5.30;;;11.40;99.90;;;;;;5054580;28;20425;-67
2022/02/24 12:01:31;;;;;;;8.87;5.40;;;11.50;99.90;;;;;;5053925;28;20507;-67
2022/02/24 12:04:18;;;;;;;5.00;4.57;;;11.50;99.90;;;;;;5053130;28;20475;-67
2022/02/24 12:06:44;;;;;;;7.47;5.10;;;11.50;99.90;;;;;;5050415;28;20426;-68
2022/02/24 12:09:11;;;;;;;4.90;4.50;;;11.50;99.70;;;;;;5053296;28;20534;-67
2022/02/24 12:11:38;;;;;;;4.57;4.07;;;11.50;99.40;;;;;;5053442;28;20177;-68
2022/02/24 12:14:19;;;;;;;4.27;3.87;;;11.50;99.50;;;;;;5052513;28;20428;-68
2022/02/24 12:17:03;;;;;;;4.07;3.50;;;11.60;99.10;;;;;;5053962;28;20437;-67
2022/02/24 12:19:35;;;;;;;4.33;3.90;;;11.60;98.80;;;;;;5052552;28;20440;-68
2022/02/24 12:22:29;;;;;;;4.60;4.20;;;11.60;98.80;;;;;;5052398;28;20863;-67
2022/02/24 12:25:25;;;;;;;4.70;3.80;;;11.70;98.60;;;;;;5053394;28;20403;-68
2022/02/24 12:28:09;;;;;;;5.90;3.73;;;11.70;98.00;;;;;;5053570;28;20514;-68
2022/02/24 12:30:35;;;;;;;5.40;3.70;;;11.60;97.40;;;;;;5053965;28;20426;-68
2022/02/24 12:33:16;;;;;;;7.30;3.50;;;11.70;97.50;;;;;;5052486;28;20405;-67
2022/02/24 12:35:45;;;;;;;4.00;3.60;;;11.70;97.30;;;;;;5053796;28;20524;-68
2022/02/24 12:38:14;;;;;;;8.27;6.47;;;11.80;97.80;;;;;;5052880;28;20892;-68
2022/02/24 12:40:45;;;;;;;6.20;4.77;;;11.90;97.80;;;;;;5053720;28;20418;-67
2022/02/24 12:43:13;;;;;;;4.20;3.87;;;11.80;98.20;;;;;;5051445;28;20633;-67
2022/02/24 12:45:41;;;;;;;5.23;4.30;;;11.90;98.30;;;;;;5052981;28;20926;-67
2022/02/24 12:48:09;;;;;;;4.87;4.43;;;11.90;98.10;;;;;;5052271;28;20498;-68